EGLJ weather

Chalgrove Airport
Chalgrove, England, United Kingdom

Public forecast

Using degrees Celsius for public forecast. Weather courtesy of forecast.io.

METAR (pilot weather report)

Closest report is RAF Benson, 3.6 nm (6.7 km) S. Retrieved 2019/03/26 21:50 UTC (57 minutes ago):

EGUB 262150Z 34006KT 9999 FEW040 08/04 Q1034 BLU NOSIG

TAF (pilot weather forecast)

Forecast is more than 12 hours old.

Closest forecast is RAF Benson, 3.6 nm (6.7 km) S. Retrieved 2011/07/01 18:06 UTC (8 years ago):

TAF EGUB 302352Z 3018/0102 CNL